createdAt,value
2022-09-12T00:00:15.736Z,3.45
2022-09-12T00:04:22.463Z,4.45
2022-09-12T00:08:29.150Z,4.78
2022-09-12T00:12:35.842Z,6.57
2022-09-12T00:16:43.076Z,6.60
2022-09-12T00:20:50.184Z,6.07
2022-09-12T00:24:56.822Z,5.15
2022-09-12T00:29:04.165Z,10.50
2022-09-12T00:33:11.730Z,6.80
2022-09-12T00:37:18.383Z,5.90
2022-09-12T00:41:34.786Z,6.15
2022-09-12T00:45:42.596Z,6.22
2022-09-12T00:50:08.883Z,6.50
2022-09-12T00:54:21.300Z,7.38
2022-09-12T00:58:39.429Z,5.70
2022-09-12T01:02:59.784Z,6.38
2022-09-12T01:07:07.936Z,8.25
2022-09-12T01:11:16.454Z,19.30
2022-09-12T01:15:23.445Z,3.50
2022-09-12T01:19:52.327Z,4.10
2022-09-12T01:24:29.276Z,3.00
2022-09-12T01:29:14.053Z,3.55
2022-09-12T01:33:39.321Z,5.55
2022-09-12T01:38:06.374Z,3.42
2022-09-12T01:42:32.105Z,3.05
2022-09-12T01:46:43.572Z,5.97
2022-09-12T01:50:56.667Z,5.00
2022-09-12T01:55:18.261Z,4.38
2022-09-12T01:59:30.492Z,3.00
2022-09-12T02:04:04.363Z,4.05
2022-09-12T02:08:31.348Z,6.07
2022-09-12T02:13:08.627Z,7.90
2022-09-12T02:17:23.109Z,13.38
2022-09-12T02:21:32.994Z,11.05
2022-09-12T02:25:44.376Z,14.60
2022-09-12T02:29:51.648Z,22.23
2022-09-12T02:34:23.633Z,14.18
2022-09-12T02:38:54.240Z,18.30
2022-09-12T02:43:03.069Z,21.95
2022-09-12T02:47:35.253Z,21.55
2022-09-12T02:51:42.282Z,12.65
2022-09-12T02:55:49.381Z,9.70
2022-09-12T02:59:59.389Z,13.23
2022-09-12T03:04:24.580Z,12.02
2022-09-12T03:08:47.232Z,10.98
2022-09-12T03:13:03.729Z,9.85
2022-09-12T03:17:42.884Z,9.55
2022-09-12T03:22:07.277Z,8.68
2022-09-12T03:26:21.214Z,9.60
2022-09-12T03:30:27.976Z,5.05
2022-09-12T03:34:34.970Z,4.10
2022-09-12T03:38:41.670Z,5.30
2022-09-12T03:42:48.507Z,7.88
2022-09-12T03:46:55.220Z,6.95
2022-09-12T03:51:06.605Z,8.23
2022-09-12T03:55:13.301Z,6.63
2022-09-12T03:59:20.550Z,3.22
2022-09-12T04:03:27.220Z,4.70
2022-09-12T04:07:34.014Z,4.45
2022-09-12T04:11:40.780Z,12.20
2022-09-12T04:15:59.750Z,18.00
2022-09-12T04:20:07.048Z,23.48
2022-09-12T04:24:13.808Z,19.92
2022-09-12T04:28:20.514Z,20.63
2022-09-12T04:32:27.232Z,24.13
2022-09-12T04:36:34.371Z,12.68
2022-09-12T04:40:41.130Z,11.45
2022-09-12T04:44:48.476Z,9.60
2022-09-12T04:48:57.116Z,13.25
2022-09-12T04:53:04.100Z,8.18
2022-09-12T04:57:10.840Z,11.43
2022-09-12T05:01:20.104Z,12.10
2022-09-12T05:05:26.848Z,18.05
2022-09-12T05:09:33.590Z,16.73
2022-09-12T05:13:40.721Z,11.85
2022-09-12T05:17:47.913Z,19.67
2022-09-12T05:21:54.573Z,21.77
2022-09-12T05:26:02.431Z,22.95
2022-09-12T05:30:09.997Z,16.95
2022-09-12T05:34:16.656Z,21.50
2022-09-12T05:38:28.373Z,20.70
2022-09-12T05:42:35.013Z,24.67
2022-09-12T05:46:43.698Z,32.03
2022-09-12T05:50:50.358Z,17.35
2022-09-12T05:54:57.007Z,20.73
2022-09-12T05:59:10.666Z,23.83
2022-09-12T06:03:17.717Z,25.85
2022-09-12T06:07:24.702Z,28.20
2022-09-12T06:11:33.986Z,32.50
2022-09-12T06:15:40.638Z,35.58
2022-09-12T06:19:47.288Z,31.98
2022-09-12T06:23:55.379Z,33.25
2022-09-12T06:28:02.189Z,31.50
2022-09-12T06:32:11.209Z,34.67
2022-09-12T06:36:28.214Z,36.20
2022-09-12T06:40:35.759Z,35.88
2022-09-12T06:44:42.456Z,39.30
2022-09-12T06:48:50.478Z,37.88
2022-09-12T06:52:57.162Z,41.35
2022-09-12T06:57:04.302Z,38.65
2022-09-12T07:01:16.243Z,41.92
2022-09-12T07:05:22.973Z,42.60
2022-09-12T07:09:30.850Z,49.42
2022-09-12T07:13:38.723Z,39.03
2022-09-12T07:17:45.376Z,43.83
2022-09-12T07:21:55.315Z,46.40
2022-09-12T07:26:05.426Z,43.17
2022-09-12T07:30:12.408Z,45.80
2022-09-12T07:34:19.057Z,44.72
2022-09-12T07:38:25.684Z,42.05
2022-09-12T07:42:32.304Z,46.42
2022-09-12T07:46:40.123Z,41.17
2022-09-12T07:50:46.901Z,46.08
2022-09-12T07:54:53.574Z,41.40
2022-09-12T07:59:00.309Z,41.78
2022-09-12T08:03:09.482Z,46.72
2022-09-12T08:07:18.079Z,40.95
2022-09-12T08:11:27.974Z,42.17
2022-09-12T08:15:35.623Z,45.40
2022-09-12T08:19:42.473Z,45.53
2022-09-12T08:23:54.017Z,44.28
2022-09-12T08:28:01.547Z,42.42
2022-09-12T08:32:08.744Z,39.28
2022-09-12T08:36:21.305Z,37.55
2022-09-12T08:40:28.038Z,34.95
2022-09-12T08:44:34.960Z,37.00
2022-09-12T08:48:45.434Z,36.10
2022-09-12T08:53:04.149Z,31.88
2022-09-12T08:57:11.793Z,33.53
2022-09-12T09:01:28.871Z,34.40
2022-09-12T09:06:08.261Z,35.30
2022-09-12T09:10:43.147Z,36.13
2022-09-12T09:15:24.797Z,27.95
2022-09-12T09:19:38.005Z,30.90
2022-09-12T09:23:50.561Z,33.15
2022-09-12T09:28:04.473Z,32.08
2022-09-12T09:32:19.167Z,34.42
2022-09-12T09:36:53.897Z,28.27
2022-09-12T09:41:20.606Z,28.15
2022-09-12T09:45:30.941Z,27.40
2022-09-12T09:49:37.750Z,21.95
2022-09-12T09:53:52.940Z,27.02
2022-09-12T09:57:59.646Z,24.60
2022-09-12T10:02:13.069Z,24.67
2022-09-12T10:06:20.121Z,18.95
2022-09-12T10:10:26.886Z,19.25
2022-09-12T10:14:37.940Z,21.08
2022-09-12T10:18:44.943Z,22.90
2022-09-12T10:22:51.725Z,16.10
2022-09-12T10:27:16.471Z,18.42
2022-09-12T10:31:54.471Z,22.25
2022-09-12T10:36:01.969Z,15.02
2022-09-12T10:40:29.830Z,13.90
2022-09-12T10:44:36.581Z,14.85
2022-09-12T10:48:45.236Z,14.82
2022-09-12T10:52:52.864Z,15.75
2022-09-12T10:57:17.568Z,10.40
2022-09-12T11:01:34.010Z,8.77
2022-09-12T11:05:57.752Z,11.10
2022-09-12T11:10:22.187Z,10.45
2022-09-12T11:14:46.599Z,7.85
2022-09-12T11:19:04.028Z,5.93
2022-09-12T11:23:32.560Z,7.25
2022-09-12T11:28:00.913Z,7.13
2022-09-12T11:32:30.337Z,7.75
2022-09-12T11:36:58.193Z,6.10
2022-09-12T11:41:09.686Z,3.60
2022-09-12T11:45:22.145Z,3.67
2022-09-12T11:49:36.210Z,2.42
2022-09-12T11:53:45.260Z,2.90
2022-09-12T11:57:58.409Z,2.60
2022-09-12T12:02:13.227Z,6.30
2022-09-12T12:06:33.027Z,4.53
2022-09-12T12:10:44.078Z,3.58
2022-09-12T12:14:53.224Z,6.80
2022-09-12T12:19:01.842Z,4.10
2022-09-12T12:23:33.386Z,4.22
2022-09-12T12:27:53.662Z,2.78
2022-09-12T12:32:03.485Z,1.27
2022-09-12T12:36:28.489Z,1.90
2022-09-12T12:40:35.185Z,2.13
2022-09-12T12:44:45.214Z,0.85
2022-09-12T12:48:53.770Z,3.20
2022-09-12T12:53:04.516Z,2.40
2022-09-12T12:57:19.816Z,1.00
2022-09-12T13:01:27.508Z,1.50
2022-09-12T13:05:44.813Z,2.33
2022-09-12T13:09:52.962Z,1.20
2022-09-12T13:14:35.581Z,1.42
2022-09-12T13:18:46.688Z,2.35
2022-09-12T13:22:53.556Z,3.72
2022-09-12T13:27:00.398Z,8.02
2022-09-12T13:31:22.871Z,3.95
2022-09-12T13:35:53.848Z,2.92
2022-09-12T13:40:22.527Z,4.70
2022-09-12T13:44:31.483Z,2.35
2022-09-12T13:48:40.344Z,3.85
2022-09-12T13:52:55.021Z,4.78
2022-09-12T13:57:01.863Z,5.32
2022-09-12T14:01:15.570Z,3.35
2022-09-12T14:05:25.687Z,1.65
2022-09-12T14:09:40.198Z,1.60
2022-09-12T14:13:48.488Z,2.88
2022-09-12T14:18:01.424Z,3.22
2022-09-12T14:22:12.481Z,3.50
2022-09-12T14:26:19.705Z,2.80
2022-09-12T14:30:32.499Z,4.32
2022-09-12T14:34:39.158Z,2.28
2022-09-12T14:38:50.689Z,1.42
2022-09-12T14:43:01.100Z,3.45
2022-09-12T14:47:15.955Z,1.70
2022-09-12T14:51:32.271Z,4.18
2022-09-12T14:56:12.480Z,3.03
2022-09-12T15:00:22.213Z,3.70
2022-09-12T15:04:43.334Z,4.72
2022-09-12T15:08:52.295Z,5.57
2022-09-12T15:13:16.714Z,3.35
2022-09-12T15:17:23.805Z,4.97
2022-09-12T15:21:30.597Z,1.80
2022-09-12T15:25:37.253Z,1.25
2022-09-12T15:29:43.937Z,4.97
2022-09-12T15:33:50.725Z,1.55
2022-09-12T15:37:57.395Z,3.03
2022-09-12T15:42:04.259Z,2.05
2022-09-12T15:46:13.152Z,0.93
2022-09-12T15:50:19.880Z,0.88
2022-09-12T15:54:26.763Z,4.53
2022-09-12T15:58:33.480Z,2.63
2022-09-12T16:02:40.647Z,3.53
2022-09-12T16:06:47.416Z,1.10
2022-09-12T16:10:58.763Z,0.88
2022-09-12T16:19:12.553Z,5.18
2022-09-12T16:23:19.240Z,1.42
2022-09-12T16:27:25.896Z,1.38
2022-09-12T16:31:32.607Z,1.40
2022-09-12T16:35:39.401Z,1.17
2022-09-12T16:39:46.454Z,2.55
2022-09-12T16:43:53.869Z,1.33
2022-09-12T16:48:01.807Z,0.73
2022-09-12T16:52:08.664Z,0.60
2022-09-12T16:56:15.546Z,1.00
2022-09-12T17:00:22.354Z,2.05
2022-09-12T17:04:29.093Z,1.67
2022-09-12T17:08:38.451Z,3.05
2022-09-12T17:12:45.177Z,0.93
2022-09-12T17:16:52.300Z,0.85
2022-09-12T17:20:59.048Z,2.00
2022-09-12T17:25:06.498Z,1.70
2022-09-12T17:29:16.800Z,1.08
2022-09-12T17:33:23.734Z,1.67
2022-09-12T17:37:30.423Z,0.95
2022-09-12T17:41:37.732Z,1.20
2022-09-12T17:45:44.405Z,3.20
2022-09-12T17:49:51.365Z,5.50
2022-09-12T17:54:10.480Z,5.25
2022-09-12T17:58:17.318Z,2.30
2022-09-12T18:02:24.027Z,1.30
2022-09-12T18:06:32.544Z,1.65
2022-09-12T18:10:39.254Z,1.90
2022-09-12T18:14:45.944Z,2.95
2022-09-12T18:18:52.690Z,6.60
2022-09-12T18:22:59.822Z,5.78
2022-09-12T18:27:06.592Z,8.40
2022-09-12T18:31:16.682Z,4.63
2022-09-12T18:35:23.555Z,1.55
2022-09-12T18:39:30.228Z,2.85
2022-09-12T18:43:37.602Z,3.03
2022-09-12T18:47:44.279Z,2.78
2022-09-12T18:51:51.078Z,6.13
2022-09-12T18:56:02.521Z,1.20
2022-09-12T19:00:12.462Z,3.35
2022-09-12T19:04:19.748Z,4.07
2022-09-12T19:08:26.440Z,3.17
2022-09-12T19:12:33.209Z,2.05
2022-09-12T19:16:39.880Z,2.38
2022-09-12T19:20:51.945Z,2.20
2022-09-12T19:24:58.703Z,3.60
2022-09-12T19:29:06.372Z,1.73
2022-09-12T19:33:13.094Z,6.20
2022-09-12T19:37:20.309Z,4.63
2022-09-12T19:41:27.658Z,5.70
2022-09-12T19:45:34.581Z,3.92
2022-09-12T19:49:41.245Z,6.47
2022-09-12T19:53:50.144Z,8.18
2022-09-12T19:57:56.848Z,6.80
2022-09-12T20:02:03.978Z,11.52
2022-09-12T20:06:14.538Z,4.65
2022-09-12T20:10:21.347Z,9.25
2022-09-12T20:14:28.110Z,4.00
2022-09-12T20:18:35.152Z,4.60
2022-09-12T20:22:41.853Z,7.90
2022-09-12T20:26:48.493Z,12.43
2022-09-12T20:31:01.174Z,9.35
2022-09-12T20:35:09.001Z,9.15
2022-09-12T20:39:20.859Z,12.50
2022-09-12T20:47:34.233Z,7.60
2022-09-12T20:51:40.962Z,3.53
2022-09-12T20:55:52.468Z,3.63
2022-09-12T20:59:59.116Z,4.97
2022-09-12T21:04:05.877Z,6.30
2022-09-12T21:08:13.891Z,3.78
2022-09-12T21:12:20.533Z,8.02
2022-09-12T21:16:27.614Z,7.03
2022-09-12T21:20:34.759Z,4.03
2022-09-12T21:24:41.466Z,4.15
2022-09-12T21:28:48.793Z,5.47
2022-09-12T21:32:55.582Z,4.38
2022-09-12T21:37:02.217Z,4.72
2022-09-12T21:41:14.967Z,4.25
2022-09-12T21:45:22.254Z,12.70
2022-09-12T21:49:28.896Z,3.15
2022-09-12T21:53:35.632Z,5.45
2022-09-12T21:57:42.285Z,9.05
2022-09-12T22:01:48.977Z,9.25
2022-09-12T22:06:00.496Z,14.15
2022-09-12T22:10:07.700Z,4.18
2022-09-12T22:14:14.375Z,5.38
2022-09-12T22:18:21.015Z,6.03
2022-09-12T22:22:46.438Z,7.60
2022-09-12T22:26:53.930Z,6.82
2022-09-12T22:31:01.322Z,6.47
2022-09-12T22:35:08.451Z,5.60
2022-09-12T22:39:15.461Z,4.38
2022-09-12T22:43:22.249Z,4.82
2022-09-12T22:47:29.109Z,5.22
2022-09-12T22:51:36.037Z,5.00
2022-09-12T22:55:46.530Z,3.42
2022-09-12T22:59:53.194Z,4.53
2022-09-12T23:03:59.861Z,4.53
2022-09-12T23:08:06.505Z,4.55
2022-09-12T23:12:13.916Z,4.65
2022-09-12T23:16:22.902Z,7.20
2022-09-12T23:20:29.810Z,7.72
2022-09-12T23:24:37.486Z,12.63
2022-09-12T23:28:58.717Z,4.50
2022-09-12T23:33:05.456Z,4.93
2022-09-12T23:37:12.642Z,4.68
2022-09-12T23:41:19.593Z,8.15
2022-09-12T23:45:26.302Z,10.32
2022-09-12T23:49:32.978Z,7.53
2022-09-12T23:53:40.066Z,7.28
2022-09-12T23:57:46.746Z,10.02
